createdAt,value
2022-08-20T00:02:24.871Z,16.50
2022-08-20T00:05:41.171Z,16.50
2022-08-20T00:08:43.489Z,16.50
2022-08-20T00:11:44.531Z,16.50
2022-08-20T00:14:45.967Z,16.50
2022-08-20T00:17:47.960Z,16.40
2022-08-20T00:20:53.686Z,16.40
2022-08-20T00:23:56.903Z,16.30
2022-08-20T00:26:57.555Z,16.40
2022-08-20T00:29:59.214Z,16.40
2022-08-20T00:33:16.918Z,16.30
2022-08-20T00:36:19.054Z,16.30
2022-08-20T00:39:19.990Z,16.30
2022-08-20T00:42:20.935Z,16.20
2022-08-20T00:45:22.239Z,16.20
2022-08-20T00:48:32.989Z,16.10
2022-08-20T00:51:41.685Z,16.00
2022-08-20T00:54:59.221Z,15.90
2022-08-20T00:58:09.150Z,15.90
2022-08-20T01:01:10.856Z,15.80
2022-08-20T01:04:11.744Z,15.80
2022-08-20T01:07:13.084Z,15.80
2022-08-20T01:10:27.862Z,15.70
2022-08-20T01:13:29.222Z,15.60
2022-08-20T01:16:32.186Z,15.60
2022-08-20T01:19:51.782Z,15.70
2022-08-20T01:23:32.755Z,15.60
2022-08-20T01:26:45.217Z,15.60
2022-08-20T01:29:47.124Z,15.60
2022-08-20T01:32:48.054Z,15.60
2022-08-20T01:35:50.610Z,15.70
2022-08-20T01:38:53.940Z,15.70
2022-08-20T01:42:17.572Z,15.70
2022-08-20T01:45:19.081Z,15.60
2022-08-20T01:48:21.052Z,15.60
2022-08-20T01:51:28.609Z,15.60
2022-08-20T01:54:29.591Z,15.60
2022-08-20T01:57:30.809Z,15.60
2022-08-20T02:00:32.762Z,15.60
2022-08-20T02:03:38.776Z,15.50
2022-08-20T02:06:56.170Z,15.50
2022-08-20T02:10:00.330Z,15.50
2022-08-20T02:13:02.080Z,15.50
2022-08-20T02:16:04.223Z,15.60
2022-08-20T02:19:15.359Z,15.50
2022-08-20T02:22:29.605Z,15.50
2022-08-20T02:25:34.900Z,15.60
2022-08-20T02:28:35.746Z,15.60
2022-08-20T02:31:37.414Z,15.60
2022-08-20T02:34:58.352Z,15.70
2022-08-20T02:37:59.642Z,15.70
2022-08-20T02:41:01.684Z,15.80
2022-08-20T02:44:03.198Z,15.80
2022-08-20T02:47:05.867Z,15.80
2022-08-20T02:50:11.478Z,15.80
2022-08-20T02:53:12.443Z,15.70
2022-08-20T02:56:14.221Z,15.60
2022-08-20T02:59:19.031Z,15.60
2022-08-20T03:02:21.776Z,15.60
2022-08-20T03:05:23.051Z,15.60
2022-08-20T03:08:27.278Z,15.60
2022-08-20T03:11:28.234Z,15.50
2022-08-20T03:14:29.612Z,15.50
2022-08-20T03:17:30.804Z,15.40
2022-08-20T03:20:31.658Z,15.40
2022-08-20T03:23:35.593Z,15.30
2022-08-20T03:26:41.748Z,15.20
2022-08-20T03:29:43.031Z,15.10
2022-08-20T03:32:44.305Z,15.10
2022-08-20T03:35:45.472Z,15.00
2022-08-20T03:38:46.608Z,14.90
2022-08-20T03:41:48.521Z,14.80
2022-08-20T03:44:59.252Z,14.70
2022-08-20T03:48:01.866Z,14.60
2022-08-20T03:51:03.749Z,14.50
2022-08-20T03:54:04.628Z,14.60
2022-08-20T03:57:12.756Z,14.60
2022-08-20T04:00:20.802Z,14.50
2022-08-20T04:03:23.661Z,14.50
2022-08-20T04:06:25.624Z,14.40
2022-08-20T04:09:26.397Z,14.40
2022-08-20T04:12:27.631Z,14.40
2022-08-20T04:15:28.703Z,14.50
2022-08-20T04:18:29.921Z,14.40
2022-08-20T04:21:36.235Z,14.40
2022-08-20T04:24:37.425Z,14.40
2022-08-20T04:27:40.620Z,14.30
2022-08-20T04:30:44.652Z,14.40
2022-08-20T04:33:52.982Z,14.40
2022-08-20T04:36:54.180Z,14.40
2022-08-20T04:40:13.771Z,14.40
2022-08-20T04:43:16.014Z,14.40
2022-08-20T04:46:17.217Z,14.50
2022-08-20T04:49:18.186Z,14.50
2022-08-20T04:52:19.026Z,14.50
2022-08-20T04:55:20.367Z,14.50
2022-08-20T04:58:27.562Z,14.60
2022-08-20T05:01:29.443Z,14.60
2022-08-20T05:04:30.942Z,14.60
2022-08-20T05:07:31.582Z,14.60
2022-08-20T05:10:32.507Z,14.70
2022-08-20T05:13:33.583Z,14.70
2022-08-20T05:16:40.814Z,14.80
2022-08-20T05:19:42.811Z,14.80
2022-08-20T05:22:44.773Z,14.90
2022-08-20T05:25:51.618Z,15.10
2022-08-20T05:28:58.500Z,15.20
2022-08-20T05:32:00.168Z,15.30
2022-08-20T05:35:03.743Z,15.40
2022-08-20T05:38:07.628Z,15.50
2022-08-20T05:41:08.570Z,15.60
2022-08-20T05:44:13.618Z,15.70
2022-08-20T05:47:14.850Z,15.80
2022-08-20T05:50:20.741Z,15.90
2022-08-20T05:53:25.806Z,16.00
2022-08-20T05:56:30.995Z,16.00
2022-08-20T05:59:34.759Z,16.10
2022-08-20T06:02:54.426Z,16.10
2022-08-20T06:05:55.368Z,16.10
2022-08-20T06:08:56.749Z,16.10
2022-08-20T06:11:59.713Z,16.00
2022-08-20T06:15:00.995Z,15.90
2022-08-20T06:18:12.997Z,15.90
2022-08-20T06:21:27.546Z,16.00
2022-08-20T06:24:28.876Z,16.20
2022-08-20T06:27:30.032Z,16.30
2022-08-20T06:30:32.577Z,16.40
2022-08-20T06:33:33.583Z,16.60
2022-08-20T06:36:34.741Z,16.70
2022-08-20T06:39:35.829Z,16.80
2022-08-20T06:42:45.747Z,16.80
2022-08-20T06:45:49.268Z,16.90
2022-08-20T06:48:51.566Z,16.80
2022-08-20T06:51:52.815Z,16.80
2022-08-20T06:54:54.100Z,16.90
2022-08-20T06:58:07.354Z,17.00
2022-08-20T07:01:28.637Z,17.00
2022-08-20T07:04:29.844Z,17.10
2022-08-20T07:07:31.438Z,17.20
2022-08-20T07:10:32.758Z,17.30
2022-08-20T07:13:34.497Z,17.30
2022-08-20T07:16:35.733Z,17.30
2022-08-20T07:19:37.614Z,17.60
2022-08-20T07:22:38.848Z,18.00
2022-08-20T07:25:44.733Z,18.50
2022-08-20T07:28:46.545Z,18.70
2022-08-20T07:32:06.145Z,18.90
2022-08-20T07:35:15.555Z,19.00
2022-08-20T07:38:24.827Z,19.20
2022-08-20T07:41:26.133Z,19.20
2022-08-20T07:44:30.885Z,19.50
2022-08-20T07:47:36.273Z,19.50
2022-08-20T07:50:37.911Z,19.80
2022-08-20T07:53:40.957Z,20.10
2022-08-20T07:56:41.992Z,20.50
2022-08-20T07:59:43.111Z,20.10
2022-08-20T08:02:45.727Z,19.90
2022-08-20T08:05:52.006Z,19.80
2022-08-20T08:08:54.121Z,19.80
2022-08-20T08:11:57.741Z,20.00
2022-08-20T08:14:58.970Z,19.90
2022-08-20T08:18:10.928Z,20.10
2022-08-20T08:21:13.400Z,20.20
2022-08-20T08:24:19.912Z,20.50
2022-08-20T08:27:22.746Z,20.50
2022-08-20T08:30:24.090Z,20.30
2022-08-20T08:33:33.699Z,20.20
2022-08-20T08:36:34.773Z,20.30
2022-08-20T08:39:35.684Z,20.50
2022-08-20T08:42:55.862Z,20.40
2022-08-20T08:46:11.683Z,20.50
2022-08-20T08:49:23.299Z,20.40
2022-08-20T08:52:34.068Z,20.20
2022-08-20T08:55:35.112Z,20.10
2022-08-20T08:58:36.999Z,20.20
2022-08-20T09:01:55.653Z,20.20
2022-08-20T09:05:02.072Z,20.60
2022-08-20T09:08:16.374Z,21.20
2022-08-20T09:11:23.408Z,21.70
2022-08-20T09:14:27.240Z,21.70
2022-08-20T09:17:28.226Z,21.50
2022-08-20T09:20:31.220Z,21.10
2022-08-20T09:23:32.317Z,21.10
2022-08-20T09:26:35.319Z,21.30
2022-08-20T09:29:39.248Z,21.90
2022-08-20T09:32:41.363Z,22.00
2022-08-20T09:35:42.376Z,21.50
2022-08-20T09:38:43.789Z,21.20
2022-08-20T09:41:44.470Z,21.30
2022-08-20T09:44:46.535Z,21.20
2022-08-20T09:47:56.972Z,21.40
2022-08-20T09:50:58.670Z,21.70
2022-08-20T09:54:00.140Z,21.80
2022-08-20T09:57:07.174Z,22.10
2022-08-20T10:00:10.379Z,21.80
2022-08-20T10:03:15.069Z,21.40
2022-08-20T10:06:19.971Z,21.70
2022-08-20T10:09:20.914Z,22.40
2022-08-20T10:12:21.987Z,22.10
2022-08-20T10:15:23.194Z,21.50
2022-08-20T10:18:24.053Z,21.20
2022-08-20T10:21:24.956Z,21.10
2022-08-20T10:24:27.754Z,21.10
2022-08-20T10:27:29.031Z,21.10
2022-08-20T10:30:29.844Z,21.00
2022-08-20T10:33:31.026Z,20.80
2022-08-20T10:36:32.176Z,20.60
2022-08-20T10:39:33.052Z,20.40
2022-08-20T10:42:36.176Z,20.20
2022-08-20T10:45:39.056Z,20.30
2022-08-20T10:48:41.201Z,20.50
2022-08-20T10:51:42.170Z,20.70
2022-08-20T10:54:43.869Z,20.90
2022-08-20T10:57:45.852Z,20.90
2022-08-20T11:00:47.421Z,20.60
2022-08-20T11:03:48.398Z,20.80
2022-08-20T11:06:49.296Z,21.40
2022-08-20T11:09:51.041Z,21.10
2022-08-20T11:12:51.892Z,21.10
2022-08-20T11:15:52.995Z,21.00
2022-08-20T11:18:53.936Z,20.70
2022-08-20T11:21:55.581Z,21.00
2022-08-20T11:24:56.855Z,21.10
2022-08-20T11:27:58.587Z,21.60
2022-08-20T11:31:01.955Z,21.50
2022-08-20T11:34:03.242Z,21.70
2022-08-20T11:37:04.161Z,22.10
2022-08-20T11:40:05.886Z,22.40
2022-08-20T11:43:15.593Z,22.40
2022-08-20T11:46:17.228Z,21.90
2022-08-20T11:49:18.606Z,21.50
2022-08-20T11:52:19.616Z,21.60
2022-08-20T11:55:20.674Z,21.50
2022-08-20T11:58:30.236Z,22.10
2022-08-20T12:01:31.565Z,21.70
2022-08-20T12:04:33.885Z,21.90
2022-08-20T12:07:36.530Z,21.80
2022-08-20T12:10:39.171Z,22.20
2022-08-20T12:13:47.750Z,21.90
2022-08-20T12:16:49.845Z,23.00
2022-08-20T12:19:53.744Z,24.20
2022-08-20T12:22:54.737Z,23.30
2022-08-20T12:25:55.633Z,23.20
2022-08-20T12:29:00.615Z,23.40
2022-08-20T12:32:01.401Z,23.30
2022-08-20T12:35:04.542Z,23.30
2022-08-20T12:38:07.043Z,23.00
2022-08-20T12:41:07.996Z,23.80
2022-08-20T12:44:12.685Z,23.00
2022-08-20T12:47:17.139Z,23.60
2022-08-20T12:50:23.220Z,23.50
2022-08-20T12:53:24.147Z,23.90
2022-08-20T12:56:25.295Z,24.40
2022-08-20T12:59:26.761Z,23.60
2022-08-20T13:02:28.142Z,22.90
2022-08-20T13:05:31.208Z,23.20
2022-08-20T13:08:32.046Z,22.90
2022-08-20T13:11:33.599Z,22.20
2022-08-20T13:14:36.053Z,22.40
2022-08-20T13:17:39.173Z,22.20
2022-08-20T13:20:40.737Z,22.40
2022-08-20T13:23:41.630Z,22.60
2022-08-20T13:26:42.892Z,22.80
2022-08-20T13:29:49.665Z,22.30
2022-08-20T13:32:50.920Z,22.40
2022-08-20T13:35:51.784Z,22.30
2022-08-20T13:38:53.134Z,22.20
2022-08-20T13:41:53.885Z,21.90
2022-08-20T13:44:55.469Z,21.80
2022-08-20T13:47:56.708Z,21.90
2022-08-20T13:50:57.822Z,21.80
2022-08-20T13:53:59.053Z,22.30
2022-08-20T13:57:09.946Z,22.60
2022-08-20T14:00:17.545Z,22.70
2022-08-20T14:03:20.136Z,23.10
2022-08-20T14:06:27.880Z,22.80
2022-08-20T14:09:30.273Z,23.90
2022-08-20T14:12:31.383Z,23.60
2022-08-20T14:15:34.768Z,23.40
2022-08-20T14:18:35.786Z,23.40
2022-08-20T14:21:36.568Z,22.40
2022-08-20T14:24:37.467Z,22.20
2022-08-20T14:27:39.302Z,21.90
2022-08-20T14:30:41.495Z,21.70
2022-08-20T14:33:44.789Z,21.80
2022-08-20T14:36:45.920Z,21.80
2022-08-20T14:39:57.062Z,21.70
2022-08-20T14:42:58.256Z,21.60
2022-08-20T14:45:59.730Z,21.50
2022-08-20T14:49:00.351Z,21.30
2022-08-20T14:52:01.536Z,21.30
2022-08-20T14:55:05.199Z,21.10
2022-08-20T14:58:13.772Z,20.90
2022-08-20T15:01:14.754Z,20.90
2022-08-20T15:04:16.367Z,20.90
2022-08-20T15:07:33.702Z,20.90
2022-08-20T15:10:34.748Z,20.80
2022-08-20T15:13:35.825Z,20.80
2022-08-20T15:16:37.438Z,20.90
2022-08-20T15:19:38.414Z,21.00
2022-08-20T15:22:41.732Z,21.10
2022-08-20T15:25:42.802Z,21.10
2022-08-20T15:28:44.041Z,20.90
2022-08-20T15:31:45.234Z,20.80
2022-08-20T15:34:49.584Z,20.70
2022-08-20T15:37:51.693Z,20.70
2022-08-20T15:40:56.128Z,20.70
2022-08-20T15:43:58.348Z,20.60
2022-08-20T15:47:26.492Z,20.50
2022-08-20T15:50:38.546Z,20.50
2022-08-20T15:53:57.283Z,20.40
2022-08-20T15:57:46.192Z,20.50
2022-08-20T16:01:24.387Z,20.50
2022-08-20T16:04:57.909Z,20.50
2022-08-20T16:08:30.894Z,20.30
2022-08-20T16:12:04.936Z,20.20
2022-08-20T16:15:19.018Z,20.10
2022-08-20T16:18:26.134Z,20.10
2022-08-20T16:21:31.763Z,20.20
2022-08-20T16:24:33.355Z,20.30
2022-08-20T16:27:49.559Z,20.50
2022-08-20T16:31:02.783Z,21.20
2022-08-20T16:34:47.718Z,21.60
2022-08-20T16:38:13.769Z,21.30
2022-08-20T16:41:39.032Z,20.80
2022-08-20T16:44:48.824Z,20.60
2022-08-20T16:47:51.755Z,20.40
2022-08-20T16:51:07.302Z,20.20
2022-08-20T16:54:10.281Z,20.20
2022-08-20T16:57:17.049Z,20.20
2022-08-20T17:00:35.678Z,20.10
2022-08-20T17:03:50.866Z,20.30
2022-08-20T17:06:52.986Z,20.40
2022-08-20T17:10:12.823Z,20.50
2022-08-20T17:13:13.780Z,20.70
2022-08-20T17:16:14.896Z,20.60
2022-08-20T17:19:32.599Z,20.50
2022-08-20T17:22:47.978Z,20.50
2022-08-20T17:26:02.112Z,20.30
2022-08-20T17:29:19.199Z,20.80
2022-08-20T17:32:26.464Z,21.10
2022-08-20T17:35:32.012Z,21.40
2022-08-20T17:38:40.993Z,21.30
2022-08-20T17:41:59.842Z,21.40
2022-08-20T17:45:16.244Z,21.30
2022-08-20T17:48:26.612Z,21.60
2022-08-20T17:51:42.676Z,21.70
2022-08-20T17:54:48.270Z,21.60
2022-08-20T17:57:57.940Z,21.40
2022-08-20T18:01:00.118Z,21.00
2022-08-20T18:04:01.555Z,20.80
2022-08-20T18:07:17.191Z,20.60
2022-08-20T18:10:26.365Z,20.40
2022-08-20T18:14:26.296Z,20.10
2022-08-20T18:18:01.277Z,19.80
2022-08-20T18:21:33.064Z,19.70
2022-08-20T18:25:15.374Z,19.40
2022-08-20T18:28:35.181Z,19.20
2022-08-20T18:32:23.311Z,19.00
2022-08-20T18:35:45.553Z,18.80
2022-08-20T18:39:23.629Z,18.70
2022-08-20T18:42:35.041Z,18.60
2022-08-20T18:45:37.221Z,18.40
2022-08-20T18:48:49.454Z,18.20
2022-08-20T18:51:51.082Z,17.90
2022-08-20T18:55:00.599Z,17.80
2022-08-20T18:58:08.102Z,17.70
2022-08-20T19:01:14.219Z,17.70
2022-08-20T19:04:30.264Z,17.60
2022-08-20T19:07:50.608Z,17.50
2022-08-20T19:11:24.582Z,17.40
2022-08-20T19:14:46.357Z,17.30
2022-08-20T19:18:09.956Z,17.10
2022-08-20T19:21:15.812Z,17.10
2022-08-20T19:24:26.048Z,17.00
2022-08-20T19:27:29.575Z,17.20
2022-08-20T19:30:43.555Z,17.20
2022-08-20T19:33:47.029Z,17.10
2022-08-20T19:37:09.141Z,17.00
2022-08-20T19:40:38.944Z,17.10
2022-08-20T19:43:45.458Z,17.20
2022-08-20T19:46:48.723Z,17.10
2022-08-20T19:50:17.943Z,16.90
2022-08-20T19:53:32.162Z,16.60
2022-08-20T19:56:41.473Z,16.40
2022-08-20T20:00:13.015Z,16.40
2022-08-20T20:03:32.128Z,16.40
2022-08-20T20:06:43.516Z,16.30
2022-08-20T20:09:46.553Z,16.30
2022-08-20T20:12:48.590Z,16.40
2022-08-20T20:15:55.909Z,16.50
2022-08-20T20:19:15.988Z,16.60
2022-08-20T20:22:47.204Z,16.70
2022-08-20T20:25:57.908Z,16.60
2022-08-20T20:29:28.147Z,16.70
2022-08-20T20:32:30.570Z,16.70
2022-08-20T20:35:36.915Z,16.60
2022-08-20T20:38:56.136Z,16.40
2022-08-20T20:42:01.257Z,16.40
2022-08-20T20:45:15.522Z,16.40
2022-08-20T20:48:27.390Z,16.40
2022-08-20T20:51:51.869Z,16.40
2022-08-20T20:55:09.364Z,16.30
2022-08-20T20:58:10.262Z,16.20
2022-08-20T21:01:11.586Z,16.20
2022-08-20T21:04:12.765Z,16.10
2022-08-20T21:07:21.271Z,16.10
2022-08-20T21:10:27.658Z,15.90
2022-08-20T21:13:28.736Z,16.00
2022-08-20T21:16:30.272Z,15.90
2022-08-20T21:19:32.508Z,15.80
2022-08-20T21:22:33.428Z,15.70
2022-08-20T21:25:35.661Z,15.70
2022-08-20T21:28:36.782Z,15.70
2022-08-20T21:31:44.077Z,15.70
2022-08-20T21:34:46.658Z,15.60
2022-08-20T21:37:47.968Z,15.60
2022-08-20T21:40:49.048Z,15.50
2022-08-20T21:43:49.762Z,15.50
2022-08-20T21:46:53.213Z,15.60
2022-08-20T21:49:54.682Z,15.70
2022-08-20T21:52:59.488Z,15.60
2022-08-20T21:56:02.077Z,15.50
2022-08-20T21:59:04.551Z,15.40
2022-08-20T22:02:06.597Z,15.50
2022-08-20T22:05:08.296Z,15.30
2022-08-20T22:08:10.328Z,15.30
2022-08-20T22:11:12.288Z,15.40
2022-08-20T22:14:15.767Z,15.60
2022-08-20T22:17:17.176Z,15.80
2022-08-20T22:20:18.028Z,15.80
2022-08-20T22:23:19.087Z,15.80
2022-08-20T22:26:21.503Z,15.70
2022-08-20T22:29:25.929Z,15.70
2022-08-20T22:32:33.407Z,15.70
2022-08-20T22:35:46.729Z,15.70
2022-08-20T22:38:47.755Z,15.90
2022-08-20T22:41:56.350Z,15.80
2022-08-20T22:44:57.194Z,15.70
2022-08-20T22:47:59.712Z,15.70
2022-08-20T22:51:01.892Z,15.80
2022-08-20T22:54:07.406Z,15.90
2022-08-20T22:57:08.790Z,15.90
2022-08-20T23:00:15.195Z,16.10
2022-08-20T23:03:29.238Z,16.10
2022-08-20T23:06:40.036Z,16.20
2022-08-20T23:09:43.252Z,16.30
2022-08-20T23:12:44.831Z,16.50
2022-08-20T23:15:45.807Z,16.50
2022-08-20T23:18:46.700Z,16.50
2022-08-20T23:21:51.802Z,16.40
2022-08-20T23:24:53.992Z,16.40
2022-08-20T23:28:04.125Z,16.40
2022-08-20T23:31:05.528Z,16.50
2022-08-20T23:34:06.354Z,16.40
2022-08-20T23:37:08.365Z,16.10
2022-08-20T23:40:11.629Z,16.00
2022-08-20T23:43:13.081Z,15.90
2022-08-20T23:46:14.116Z,15.80
2022-08-20T23:49:15.720Z,15.90
2022-08-20T23:52:18.356Z,15.80
2022-08-20T23:55:21.144Z,15.70
2022-08-20T23:58:22.594Z,15.90
